sensor_id;sensor_type;location;lat;lon;timestamp;pressure;altitude;pressure_sealevel;temperature;humidity
2188;BME280;1100;52.014;8.540;2023-05-12T00:01:05;100150.16;;;11.18;92.22
2188;BME280;1100;52.014;8.540;2023-05-12T00:03:31;100153.84;;;11.15;92.16
2188;BME280;1100;52.014;8.540;2023-05-12T00:05:59;100150.69;;;11.13;92.19
2188;BME280;1100;52.014;8.540;2023-05-12T00:08:27;100162.28;;;11.11;92.24
2188;BME280;1100;52.014;8.540;2023-05-12T00:10:53;100160.81;;;11.06;92.25
2188;BME280;1100;52.014;8.540;2023-05-12T00:13:18;100162.50;;;11.04;92.19
2188;BME280;1100;52.014;8.540;2023-05-12T00:15:47;100159.47;;;10.98;92.12
2188;BME280;1100;52.014;8.540;2023-05-12T00:18:13;100167.56;;;10.92;92.21
2188;BME280;1100;52.014;8.540;2023-05-12T00:20:38;100172.44;;;10.88;92.15
2188;BME280;1100;52.014;8.540;2023-05-12T00:23:03;100182.91;;;10.84;92.22
2188;BME280;1100;52.014;8.540;2023-05-12T00:25:29;100181.75;;;10.81;92.22
2188;BME280;1100;52.014;8.540;2023-05-12T00:27:54;100189.00;;;10.79;92.20
2188;BME280;1100;52.014;8.540;2023-05-12T00:30:19;100191.41;;;10.77;92.22
2188;BME280;1100;52.014;8.540;2023-05-12T00:32:45;100193.44;;;10.76;92.40
2188;BME280;1100;52.014;8.540;2023-05-12T00:35:10;100186.66;;;10.77;92.34
2188;BME280;1100;52.014;8.540;2023-05-12T00:37:35;100176.75;;;10.76;92.35
2188;BME280;1100;52.014;8.540;2023-05-12T00:40:01;100185.97;;;10.73;92.28
2188;BME280;1100;52.014;8.540;2023-05-12T00:42:27;100182.84;;;10.71;92.28
2188;BME280;1100;52.014;8.540;2023-05-12T00:44:52;100183.38;;;10.66;92.29
2188;BME280;1100;52.014;8.540;2023-05-12T00:47:17;100186.13;;;10.66;92.41
2188;BME280;1100;52.014;8.540;2023-05-12T00:49:45;100171.88;;;10.64;92.42
2188;BME280;1100;52.014;8.540;2023-05-12T00:52:10;100172.75;;;10.61;92.40
2188;BME280;1100;52.014;8.540;2023-05-12T00:54:36;100173.63;;;10.57;92.23
2188;BME280;1100;52.014;8.540;2023-05-12T00:57:02;100177.28;;;10.54;92.32
2188;BME280;1100;52.014;8.540;2023-05-12T00:59:28;100171.50;;;10.49;92.11
2188;BME280;1100;52.014;8.540;2023-05-12T01:01:54;100171.97;;;10.43;92.04
2188;BME280;1100;52.014;8.540;2023-05-12T01:04:20;100165.81;;;10.35;92.10
2188;BME280;1100;52.014;8.540;2023-05-12T01:07:05;100165.22;;;10.28;91.97
2188;BME280;1100;52.014;8.540;2023-05-12T01:09:34;100168.63;;;10.19;91.95
2188;BME280;1100;52.014;8.540;2023-05-12T01:11:59;100164.81;;;10.13;92.03
2188;BME280;1100;52.014;8.540;2023-05-12T01:14:24;100158.22;;;10.06;91.86
2188;BME280;1100;52.014;8.540;2023-05-12T01:16:56;100163.09;;;10.02;91.98
2188;BME280;1100;52.014;8.540;2023-05-12T01:19:41;100162.38;;;9.98;91.85
2188;BME280;1100;52.014;8.540;2023-05-12T01:22:09;100158.91;;;9.94;91.98
2188;BME280;1100;52.014;8.540;2023-05-12T01:24:39;100163.34;;;9.91;91.91
2188;BME280;1100;52.014;8.540;2023-05-12T01:27:06;100163.41;;;9.88;91.99
2188;BME280;1100;52.014;8.540;2023-05-12T01:29:32;100163.94;;;9.82;91.89
2188;BME280;1100;52.014;8.540;2023-05-12T01:32:00;100168.78;;;9.78;91.67
2188;BME280;1100;52.014;8.540;2023-05-12T01:34:27;100180.75;;;9.75;91.93
2188;BME280;1100;52.014;8.540;2023-05-12T01:36:52;100175.72;;;9.70;92.12
2188;BME280;1100;52.014;8.540;2023-05-12T01:39:17;100177.00;;;9.65;91.96
2188;BME280;1100;52.014;8.540;2023-05-12T01:41:42;100175.09;;;9.62;91.79
2188;BME280;1100;52.014;8.540;2023-05-12T01:44:08;100177.97;;;9.58;91.86
2188;BME280;1100;52.014;8.540;2023-05-12T01:46:33;100176.47;;;9.54;91.83
2188;BME280;1100;52.014;8.540;2023-05-12T01:48:58;100179.25;;;9.54;92.00
2188;BME280;1100;52.014;8.540;2023-05-12T01:51:24;100183.66;;;9.51;91.64
2188;BME280;1100;52.014;8.540;2023-05-12T01:53:49;100183.31;;;9.49;91.91
2188;BME280;1100;52.014;8.540;2023-05-12T01:56:14;100183.75;;;9.47;92.03
2188;BME280;1100;52.014;8.540;2023-05-12T01:58:39;100175.84;;;9.46;91.92
2188;BME280;1100;52.014;8.540;2023-05-12T02:01:05;100180.59;;;9.45;92.08
2188;BME280;1100;52.014;8.540;2023-05-12T02:03:30;100176.28;;;9.44;91.95
2188;BME280;1100;52.014;8.540;2023-05-12T02:05:55;100184.16;;;9.46;92.19
2188;BME280;1100;52.014;8.540;2023-05-12T02:08:20;100182.94;;;9.47;92.44
2188;BME280;1100;52.014;8.540;2023-05-12T02:10:46;100184.06;;;9.50;92.12
2188;BME280;1100;52.014;8.540;2023-05-12T02:13:11;100180.88;;;9.51;92.05
2188;BME280;1100;52.014;8.540;2023-05-12T02:15:37;100180.81;;;9.55;92.06
2188;BME280;1100;52.014;8.540;2023-05-12T02:18:02;100184.00;;;9.53;91.87
2188;BME280;1100;52.014;8.540;2023-05-12T02:20:28;100176.47;;;9.54;91.94
2188;BME280;1100;52.014;8.540;2023-05-12T02:22:54;100182.78;;;9.54;92.16
2188;BME280;1100;52.014;8.540;2023-05-12T02:25:19;100181.59;;;9.55;92.15
2188;BME280;1100;52.014;8.540;2023-05-12T02:27:45;100187.16;;;9.55;92.11
2188;BME280;1100;52.014;8.540;2023-05-12T02:30:10;100189.50;;;9.57;92.19
2188;BME280;1100;52.014;8.540;2023-05-12T02:32:36;100196.59;;;9.58;92.10
2188;BME280;1100;52.014;8.540;2023-05-12T02:35:01;100194.25;;;9.56;92.17
2188;BME280;1100;52.014;8.540;2023-05-12T02:37:26;100195.47;;;9.55;92.09
2188;BME280;1100;52.014;8.540;2023-05-12T02:39:51;100191.91;;;9.55;92.08
2188;BME280;1100;52.014;8.540;2023-05-12T02:42:17;100194.69;;;9.55;92.31
2188;BME280;1100;52.014;8.540;2023-05-12T02:44:42;100199.00;;;9.56;92.30
2188;BME280;1100;52.014;8.540;2023-05-12T02:47:07;100189.81;;;9.59;92.25
2188;BME280;1100;52.014;8.540;2023-05-12T02:49:33;100194.59;;;9.58;92.30
2188;BME280;1100;52.014;8.540;2023-05-12T02:51:58;100192.16;;;9.60;92.15
2188;BME280;1100;52.014;8.540;2023-05-12T02:54:23;100182.72;;;9.58;92.22
2188;BME280;1100;52.014;8.540;2023-05-12T02:56:48;100188.28;;;9.58;92.24
2188;BME280;1100;52.014;8.540;2023-05-12T02:59:14;100183.50;;;9.58;92.13
2188;BME280;1100;52.014;8.540;2023-05-12T03:01:39;100187.03;;;9.59;92.10
2188;BME280;1100;52.014;8.540;2023-05-12T03:04:04;100189.06;;;9.58;92.18
2188;BME280;1100;52.014;8.540;2023-05-12T03:06:30;100185.13;;;9.56;92.12
2188;BME280;1100;52.014;8.540;2023-05-12T03:08:55;100185.56;;;9.54;92.24
2188;BME280;1100;52.014;8.540;2023-05-12T03:11:21;100182.03;;;9.54;92.23
2188;BME280;1100;52.014;8.540;2023-05-12T03:13:46;100183.66;;;9.51;92.15
2188;BME280;1100;52.014;8.540;2023-05-12T03:16:12;100183.66;;;9.51;92.12
2188;BME280;1100;52.014;8.540;2023-05-12T03:18:38;100184.88;;;9.50;92.18
2188;BME280;1100;52.014;8.540;2023-05-12T03:21:03;100188.44;;;9.51;92.43
2188;BME280;1100;52.014;8.540;2023-05-12T03:23:29;100181.31;;;9.50;92.21
2188;BME280;1100;52.014;8.540;2023-05-12T03:25:54;100189.63;;;9.50;92.19
2188;BME280;1100;52.014;8.540;2023-05-12T03:28:20;100193.19;;;9.50;92.15
2188;BME280;1100;52.014;8.540;2023-05-12T03:30:47;100191.97;;;9.51;92.36
2188;BME280;1100;52.014;8.540;2023-05-12T03:33:12;100192.75;;;9.52;92.25
2188;BME280;1100;52.014;8.540;2023-05-12T03:35:38;100190.84;;;9.49;92.23
2188;BME280;1100;52.014;8.540;2023-05-12T03:38:03;100192.81;;;9.48;92.11
2188;BME280;1100;52.014;8.540;2023-05-12T03:40:29;100194.41;;;9.49;92.26
2188;BME280;1100;52.014;8.540;2023-05-12T03:42:54;100199.97;;;9.49;92.15
2188;BME280;1100;52.014;8.540;2023-05-12T03:45:20;100199.59;;;9.47;92.14
2188;BME280;1100;52.014;8.540;2023-05-12T03:47:45;100195.59;;;9.48;92.25
2188;BME280;1100;52.014;8.540;2023-05-12T03:50:11;100200.38;;;9.47;91.82
2188;BME280;1100;52.014;8.540;2023-05-12T03:52:36;100199.59;;;9.47;92.16
2188;BME280;1100;52.014;8.540;2023-05-12T03:55:04;100189.72;;;9.46;92.26
2188;BME280;1100;52.014;8.540;2023-05-12T03:57:30;100191.63;;;9.49;92.47
2188;BME280;1100;52.014;8.540;2023-05-12T03:59:55;100195.97;;;9.50;92.30
2188;BME280;1100;52.014;8.540;2023-05-12T04:02:20;100197.88;;;9.53;92.61
2188;BME280;1100;52.014;8.540;2023-05-12T04:04:48;100202.22;;;9.54;92.27
2188;BME280;1100;52.014;8.540;2023-05-12T04:07:13;100205.78;;;9.55;92.19
2188;BME280;1100;52.014;8.540;2023-05-12T04:09:39;100194.25;;;9.56;92.28
2188;BME280;1100;52.014;8.540;2023-05-12T04:12:04;100210.84;;;9.60;92.38
2188;BME280;1100;52.014;8.540;2023-05-12T04:14:30;100216.28;;;9.64;92.36
2188;BME280;1100;52.014;8.540;2023-05-12T04:16:55;100226.53;;;9.67;92.52
2188;BME280;1100;52.014;8.540;2023-05-12T04:19:22;100219.69;;;9.71;92.58
2188;BME280;1100;52.014;8.540;2023-05-12T04:21:48;100227.09;;;9.78;92.61
2188;BME280;1100;52.014;8.540;2023-05-12T04:24:13;100223.00;;;9.83;92.59
2188;BME280;1100;52.014;8.540;2023-05-12T04:26:38;100231.28;;;9.87;92.66
2188;BME280;1100;52.014;8.540;2023-05-12T04:29:04;100226.84;;;9.89;92.62
2188;BME280;1100;52.014;8.540;2023-05-12T04:31:29;100242.22;;;9.94;92.53
2188;BME280;1100;52.014;8.540;2023-05-12T04:33:54;100233.44;;;9.95;92.57
2188;BME280;1100;52.014;8.540;2023-05-12T04:36:20;100242.03;;;10.01;92.51
2188;BME280;1100;52.014;8.540;2023-05-12T04:38:45;100243.19;;;10.04;92.59
2188;BME280;1100;52.014;8.540;2023-05-12T04:41:11;100234.75;;;10.07;92.69
2188;BME280;1100;52.014;8.540;2023-05-12T04:43:36;100241.78;;;10.12;92.60
2188;BME280;1100;52.014;8.540;2023-05-12T04:46:02;100251.28;;;10.15;92.61
2188;BME280;1100;52.014;8.540;2023-05-12T04:48:27;100249.53;;;10.21;92.67
2188;BME280;1100;52.014;8.540;2023-05-12T04:50:53;100246.34;;;10.22;92.67
2188;BME280;1100;52.014;8.540;2023-05-12T04:53:19;100251.47;;;10.24;92.56
2188;BME280;1100;52.014;8.540;2023-05-12T04:55:44;100254.56;;;10.26;92.72
2188;BME280;1100;52.014;8.540;2023-05-12T04:58:13;100266.81;;;10.29;92.61
2188;BME280;1100;52.014;8.540;2023-05-12T05:00:38;100260.41;;;10.32;92.95
2188;BME280;1100;52.014;8.540;2023-05-12T05:03:04;100258.06;;;10.30;92.72
2188;BME280;1100;52.014;8.540;2023-05-12T05:05:29;100270.66;;;10.35;92.69
2188;BME280;1100;52.014;8.540;2023-05-12T05:07:55;100285.66;;;10.38;92.75
2188;BME280;1100;52.014;8.540;2023-05-12T05:10:23;100285.22;;;10.39;92.68
2188;BME280;1100;52.014;8.540;2023-05-12T05:12:48;100285.91;;;10.43;92.79
2188;BME280;1100;52.014;8.540;2023-05-12T05:15:13;100287.09;;;10.46;92.74
2188;BME280;1100;52.014;8.540;2023-05-12T05:17:39;100291.03;;;10.45;92.67
2188;BME280;1100;52.014;8.540;2023-05-12T05:20:04;100292.66;;;10.46;92.81
2188;BME280;1100;52.014;8.540;2023-05-12T05:22:31;100302.94;;;10.45;92.79
2188;BME280;1100;52.014;8.540;2023-05-12T05:24:56;100301.31;;;10.48;92.70
2188;BME280;1100;52.014;8.540;2023-05-12T05:27:22;100299.34;;;10.49;92.81
2188;BME280;1100;52.014;8.540;2023-05-12T05:29:50;100302.03;;;10.52;92.86
2188;BME280;1100;52.014;8.540;2023-05-12T05:32:15;100302.38;;;10.54;92.78
2188;BME280;1100;52.014;8.540;2023-05-12T05:34:41;100311.41;;;10.58;92.72
2188;BME280;1100;52.014;8.540;2023-05-12T05:37:06;100308.97;;;10.61;92.74
2188;BME280;1100;52.014;8.540;2023-05-12T05:39:31;100308.09;;;10.64;92.87
2188;BME280;1100;52.014;8.540;2023-05-12T05:41:57;100315.94;;;10.69;92.88
2188;BME280;1100;52.014;8.540;2023-05-12T05:44:23;100315.84;;;10.73;92.84
2188;BME280;1100;52.014;8.540;2023-05-12T05:46:49;100322.09;;;10.77;92.90
2188;BME280;1100;52.014;8.540;2023-05-12T05:49:14;100319.25;;;10.80;92.80
2188;BME280;1100;52.014;8.540;2023-05-12T05:51:40;100323.13;;;10.83;92.82
2188;BME280;1100;52.014;8.540;2023-05-12T05:54:05;100314.72;;;10.87;92.89
2188;BME280;1100;52.014;8.540;2023-05-12T05:56:30;100322.19;;;10.90;92.73
2188;BME280;1100;52.014;8.540;2023-05-12T05:58:57;100326.88;;;10.93;92.86
2188;BME280;1100;52.014;8.540;2023-05-12T06:01:26;100318.00;;;10.98;92.82
2188;BME280;1100;52.014;8.540;2023-05-12T06:03:52;100329.75;;;11.06;92.89
2188;BME280;1100;52.014;8.540;2023-05-12T06:06:17;100339.56;;;11.11;92.91
2188;BME280;1100;52.014;8.540;2023-05-12T06:08:42;100341.91;;;11.12;92.69
2188;BME280;1100;52.014;8.540;2023-05-12T06:11:07;100338.31;;;11.12;92.61
2188;BME280;1100;52.014;8.540;2023-05-12T06:13:33;100343.88;;;11.12;92.89
2188;BME280;1100;52.014;8.540;2023-05-12T06:15:58;100349.38;;;11.15;92.89
2188;BME280;1100;52.014;8.540;2023-05-12T06:18:23;100351.72;;;11.17;92.87
2188;BME280;1100;52.014;8.540;2023-05-12T06:20:49;100359.19;;;11.20;92.81
2188;BME280;1100;52.014;8.540;2023-05-12T06:23:14;100359.88;;;11.24;92.88
2188;BME280;1100;52.014;8.540;2023-05-12T06:25:39;100359.34;;;11.29;92.71
2188;BME280;1100;52.014;8.540;2023-05-12T06:28:05;100365.59;;;11.33;92.82
2188;BME280;1100;52.014;8.540;2023-05-12T06:30:33;100362.72;;;11.37;92.80
2188;BME280;1100;52.014;8.540;2023-05-12T06:32:59;100364.63;;;11.40;92.75
2188;BME280;1100;52.014;8.540;2023-05-12T06:35:25;100361.06;;;11.40;92.73
2188;BME280;1100;52.014;8.540;2023-05-12T06:37:50;100365.84;;;11.39;92.83
2188;BME280;1100;52.014;8.540;2023-05-12T06:40:15;100369.31;;;11.43;92.67
2188;BME280;1100;52.014;8.540;2023-05-12T06:42:41;100359.31;;;11.46;92.77
2188;BME280;1100;52.014;8.540;2023-05-12T06:45:07;100355.56;;;11.53;92.70
2188;BME280;1100;52.014;8.540;2023-05-12T06:47:33;100363.34;;;11.58;92.34
2188;BME280;1100;52.014;8.540;2023-05-12T06:49:58;100360.81;;;11.64;92.79
2188;BME280;1100;52.014;8.540;2023-05-12T06:52:24;100367.75;;;11.72;92.63
2188;BME280;1100;52.014;8.540;2023-05-12T06:54:49;100369.47;;;11.82;92.86
2188;BME280;1100;52.014;8.540;2023-05-12T06:57:15;100373.94;;;11.93;92.72
2188;BME280;1100;52.014;8.540;2023-05-12T06:59:40;100371.28;;;12.02;92.57
2188;BME280;1100;52.014;8.540;2023-05-12T07:02:05;100368.78;;;12.08;92.70
2188;BME280;1100;52.014;8.540;2023-05-12T07:04:31;100364.97;;;12.15;92.50
2188;BME280;1100;52.014;8.540;2023-05-12T07:06:56;100368.31;;;12.23;92.50
2188;BME280;1100;52.014;8.540;2023-05-12T07:09:21;100368.91;;;12.30;92.99
2188;BME280;1100;52.014;8.540;2023-05-12T07:11:47;100369.00;;;12.40;92.54
2188;BME280;1100;52.014;8.540;2023-05-12T07:14:12;100362.00;;;12.48;92.68
2188;BME280;1100;52.014;8.540;2023-05-12T07:16:37;100370.47;;;12.57;92.62
2188;BME280;1100;52.014;8.540;2023-05-12T07:19:03;100363.75;;;12.68;92.42
2188;BME280;1100;52.014;8.540;2023-05-12T07:21:30;100366.66;;;12.77;92.25
2188;BME280;1100;52.014;8.540;2023-05-12T07:23:56;100368.44;;;12.84;92.22
2188;BME280;1100;52.014;8.540;2023-05-12T07:26:21;100356.59;;;12.93;92.13
2188;BME280;1100;52.014;8.540;2023-05-12T07:28:48;100366.41;;;12.98;92.05
2188;BME280;1100;52.014;8.540;2023-05-12T07:31:13;100372.88;;;13.07;91.97
2188;BME280;1100;52.014;8.540;2023-05-12T07:33:39;100367.72;;;13.19;91.65
2188;BME280;1100;52.014;8.540;2023-05-12T07:36:05;100369.69;;;13.31;91.96
2188;BME280;1100;52.014;8.540;2023-05-12T07:38:30;100368.22;;;13.40;91.86
2188;BME280;1100;52.014;8.540;2023-05-12T07:40:57;100372.75;;;13.46;91.49
2188;BME280;1100;52.014;8.540;2023-05-12T07:43:23;100367.16;;;13.60;91.59
2188;BME280;1100;52.014;8.540;2023-05-12T07:45:48;100372.75;;;13.82;91.73
2188;BME280;1100;52.014;8.540;2023-05-12T07:48:13;100367.53;;;13.93;91.67
2188;BME280;1100;52.014;8.540;2023-05-12T07:50:39;100372.19;;;13.97;91.24
2188;BME280;1100;52.014;8.540;2023-05-12T07:53:04;100363.88;;;14.06;91.17
2188;BME280;1100;52.014;8.540;2023-05-12T07:55:30;100361.91;;;14.16;91.41
2188;BME280;1100;52.014;8.540;2023-05-12T07:57:57;100368.50;;;14.31;91.22
2188;BME280;1100;52.014;8.540;2023-05-12T08:00:22;100372.63;;;14.49;91.15
2188;BME280;1100;52.014;8.540;2023-05-12T08:02:48;100366.16;;;14.62;90.92
2188;BME280;1100;52.014;8.540;2023-05-12T08:05:13;100372.38;;;14.66;90.33
2188;BME280;1100;52.014;8.540;2023-05-12T08:07:39;100369.81;;;14.81;90.28
2188;BME280;1100;52.014;8.540;2023-05-12T08:10:08;100366.59;;;14.92;90.47
2188;BME280;1100;52.014;8.540;2023-05-12T08:12:34;100364.28;;;15.09;90.60
2188;BME280;1100;52.014;8.540;2023-05-12T08:14:59;100372.03;;;15.14;90.12
2188;BME280;1100;52.014;8.540;2023-05-12T08:17:25;100364.13;;;15.22;90.30
2188;BME280;1100;52.014;8.540;2023-05-12T08:19:50;100370.84;;;15.53;89.28
2188;BME280;1100;52.014;8.540;2023-05-12T08:22:15;100365.66;;;15.89;90.05
2188;BME280;1100;52.014;8.540;2023-05-12T08:24:41;100363.84;;;16.29;89.86
2188;BME280;1100;52.014;8.540;2023-05-12T08:27:06;100377.69;;;16.76;89.51
2188;BME280;1100;52.014;8.540;2023-05-12T08:29:32;100369.19;;;17.19;88.91
2188;BME280;1100;52.014;8.540;2023-05-12T08:31:58;100360.94;;;17.55;88.74
2188;BME280;1100;52.014;8.540;2023-05-12T08:34:23;100373.59;;;17.90;88.52
2188;BME280;1100;52.014;8.540;2023-05-12T08:36:51;100370.56;;;18.09;87.57
2188;BME280;1100;52.014;8.540;2023-05-12T08:39:16;100363.38;;;18.38;87.52
2188;BME280;1100;52.014;8.540;2023-05-12T08:41:46;100366.94;;;18.53;86.83
2188;BME280;1100;52.014;8.540;2023-05-12T08:44:14;100367.88;;;18.65;86.45
2188;BME280;1100;52.014;8.540;2023-05-12T08:46:41;100371.63;;;18.77;85.58
2188;BME280;1100;52.014;8.540;2023-05-12T08:49:09;100371.34;;;18.75;86.06
2188;BME280;1100;52.014;8.540;2023-05-12T08:51:40;100364.97;;;18.96;86.29
2188;BME280;1100;52.014;8.540;2023-05-12T08:54:07;100376.31;;;19.22;85.90
2188;BME280;1100;52.014;8.540;2023-05-12T08:56:34;100373.50;;;19.22;84.81
2188;BME280;1100;52.014;8.540;2023-05-12T08:59:01;100370.97;;;19.45;85.77
2188;BME280;1100;52.014;8.540;2023-05-12T09:01:28;100369.31;;;19.59;84.64
2188;BME280;1100;52.014;8.540;2023-05-12T09:03:54;100364.09;;;19.52;83.89
2188;BME280;1100;52.014;8.540;2023-05-12T09:06:19;100366.66;;;19.50;84.48
2188;BME280;1100;52.014;8.540;2023-05-12T09:08:45;100368.44;;;19.74;83.98
2188;BME280;1100;52.014;8.540;2023-05-12T09:11:10;100367.84;;;19.64;83.89
2188;BME280;1100;52.014;8.540;2023-05-12T09:16:11;100372.41;;;19.88;83.83
2188;BME280;1100;52.014;8.540;2023-05-12T09:18:56;100364.91;;;20.06;83.51
2188;BME280;1100;52.014;8.540;2023-05-12T09:21:22;100366.00;;;20.14;82.98
2188;BME280;1100;52.014;8.540;2023-05-12T09:23:55;100371.38;;;20.12;83.04
2188;BME280;1100;52.014;8.540;2023-05-12T09:26:21;100368.16;;;20.25;83.60
2188;BME280;1100;52.014;8.540;2023-05-12T09:28:47;100367.00;;;20.43;83.54
2188;BME280;1100;52.014;8.540;2023-05-12T09:31:17;100366.59;;;20.62;82.99
2188;BME280;1100;52.014;8.540;2023-05-12T09:33:43;100367.88;;;20.61;82.77
2188;BME280;1100;52.014;8.540;2023-05-12T09:36:08;100378.34;;;20.49;81.90
2188;BME280;1100;52.014;8.540;2023-05-12T09:38:34;100369.47;;;20.29;81.75
2188;BME280;1100;52.014;8.540;2023-05-12T09:40:59;100374.19;;;20.12;81.83
2188;BME280;1100;52.014;8.540;2023-05-12T09:43:24;100367.63;;;20.21;81.72
2188;BME280;1100;52.014;8.540;2023-05-12T09:45:50;100381.94;;;20.17;81.59
2188;BME280;1100;52.014;8.540;2023-05-12T09:48:16;100374.66;;;20.37;82.31
2188;BME280;1100;52.014;8.540;2023-05-12T09:50:51;100376.63;;;20.63;82.12
2188;BME280;1100;52.014;8.540;2023-05-12T09:53:18;100373.41;;;20.87;81.96
2188;BME280;1100;52.014;8.540;2023-05-12T09:55:45;100373.25;;;21.02;81.16
2188;BME280;1100;52.014;8.540;2023-05-12T09:58:13;100366.69;;;21.28;81.98
2188;BME280;1100;52.014;8.540;2023-05-12T10:00:40;100373.47;;;21.60;81.00
2188;BME280;1100;52.014;8.540;2023-05-12T10:03:11;100372.94;;;21.67;80.28
2188;BME280;1100;52.014;8.540;2023-05-12T10:05:45;100378.59;;;21.67;80.48
2188;BME280;1100;52.014;8.540;2023-05-12T10:08:14;100372.75;;;21.76;80.07
2188;BME280;1100;52.014;8.540;2023-05-12T10:10:41;100374.81;;;21.87;80.48
2188;BME280;1100;52.014;8.540;2023-05-12T10:13:06;100379.47;;;22.13;80.18
2188;BME280;1100;52.014;8.540;2023-05-12T10:15:33;100382.31;;;22.31;79.96
2188;BME280;1100;52.014;8.540;2023-05-12T10:17:58;100373.00;;;22.47;79.37
2188;BME280;1100;52.014;8.540;2023-05-12T10:20:25;100370.19;;;22.36;78.49
2188;BME280;1100;52.014;8.540;2023-05-12T10:22:53;100372.50;;;22.43;79.13
2188;BME280;1100;52.014;8.540;2023-05-12T10:25:19;100370.69;;;22.57;78.53
2188;BME280;1100;52.014;8.540;2023-05-12T10:27:45;100375.59;;;22.51;77.71
2188;BME280;1100;52.014;8.540;2023-05-12T10:30:11;100373.25;;;22.55;77.47
2188;BME280;1100;52.014;8.540;2023-05-12T10:32:37;100374.31;;;22.46;76.99
2188;BME280;1100;52.014;8.540;2023-05-12T10:35:09;100374.03;;;22.50;77.63
2188;BME280;1100;52.014;8.540;2023-05-12T10:37:35;100368.88;;;22.54;77.54
2188;BME280;1100;52.014;8.540;2023-05-12T10:40:04;100361.41;;;22.62;77.30
2188;BME280;1100;52.014;8.540;2023-05-12T10:42:38;100366.84;;;22.60;76.18
2188;BME280;1100;52.014;8.540;2023-05-12T10:45:14;100361.94;;;22.67;75.27
2188;BME280;1100;52.014;8.540;2023-05-12T10:47:41;100372.44;;;22.83;76.47
2188;BME280;1100;52.014;8.540;2023-05-12T10:50:07;100362.53;;;23.13;75.07
2188;BME280;1100;52.014;8.540;2023-05-12T10:52:33;100357.09;;;23.21;75.31
2188;BME280;1100;52.014;8.540;2023-05-12T10:55:00;100359.63;;;23.30;74.95
2188;BME280;1100;52.014;8.540;2023-05-12T10:57:26;100364.50;;;23.41;74.71
2188;BME280;1100;52.014;8.540;2023-05-12T10:59:56;100372.19;;;23.46;74.17
2188;BME280;1100;52.014;8.540;2023-05-12T11:02:24;100357.09;;;23.26;72.34
2188;BME280;1100;52.014;8.540;2023-05-12T11:07:18;100367.72;;;23.09;71.92
2188;BME280;1100;52.014;8.540;2023-05-12T11:09:45;100372.59;;;23.14;71.73
2188;BME280;1100;52.014;8.540;2023-05-12T11:12:11;100361.22;;;23.20;70.28
2188;BME280;1100;52.014;8.540;2023-05-12T11:14:39;100356.56;;;23.22;70.72
2188;BME280;1100;52.014;8.540;2023-05-12T11:17:05;100359.66;;;23.24;71.02
2188;BME280;1100;52.014;8.540;2023-05-12T11:19:31;100366.81;;;23.37;69.70
2188;BME280;1100;52.014;8.540;2023-05-12T11:21:56;100362.22;;;23.28;70.37
2188;BME280;1100;52.014;8.540;2023-05-12T11:24:22;100357.75;;;23.50;71.07
2188;BME280;1100;52.014;8.540;2023-05-12T11:26:47;100356.59;;;23.70;69.18
2188;BME280;1100;52.014;8.540;2023-05-12T11:29:20;100372.31;;;23.71;68.17
2188;BME280;1100;52.014;8.540;2023-05-12T11:31:51;100365.13;;;23.64;67.94
2188;BME280;1100;52.014;8.540;2023-05-12T11:34:21;100373.56;;;23.76;67.87
2188;BME280;1100;52.014;8.540;2023-05-12T11:36:47;100361.50;;;23.70;65.71
2188;BME280;1100;52.014;8.540;2023-05-12T11:39:15;100357.47;;;23.54;66.57
2188;BME280;1100;52.014;8.540;2023-05-12T11:41:41;100363.75;;;23.29;63.93
2188;BME280;1100;52.014;8.540;2023-05-12T11:44:23;100373.66;;;23.11;61.81
2188;BME280;1100;52.014;8.540;2023-05-12T11:46:55;100369.34;;;22.87;64.29
2188;BME280;1100;52.014;8.540;2023-05-12T11:49:20;100364.47;;;22.82;65.87
2188;BME280;1100;52.014;8.540;2023-05-12T11:51:46;100373.47;;;22.86;62.09
2188;BME280;1100;52.014;8.540;2023-05-12T11:54:11;100367.84;;;22.63;61.70
2188;BME280;1100;52.014;8.540;2023-05-12T11:56:37;100375.84;;;22.59;63.50
2188;BME280;1100;52.014;8.540;2023-05-12T11:59:02;100372.75;;;22.45;62.43
2188;BME280;1100;52.014;8.540;2023-05-12T12:01:27;100374.56;;;22.43;63.39
2188;BME280;1100;52.014;8.540;2023-05-12T12:03:54;100375.06;;;22.41;62.52
2188;BME280;1100;52.014;8.540;2023-05-12T12:06:21;100370.94;;;22.65;63.80
2188;BME280;1100;52.014;8.540;2023-05-12T12:08:57;100369.59;;;22.83;62.78
2188;BME280;1100;52.014;8.540;2023-05-12T12:11:25;100364.41;;;22.99;63.06
2188;BME280;1100;52.014;8.540;2023-05-12T12:13:55;100357.38;;;23.17;62.91
2188;BME280;1100;52.014;8.540;2023-05-12T12:16:30;100372.78;;;23.27;59.17
2188;BME280;1100;52.014;8.540;2023-05-12T12:18:56;100372.31;;;23.23;56.72
2188;BME280;1100;52.014;8.540;2023-05-12T12:21:23;100371.56;;;23.11;55.07
2188;BME280;1100;52.014;8.540;2023-05-12T12:23:49;100369.91;;;22.57;57.11
2188;BME280;1100;52.014;8.540;2023-05-12T12:26:15;100383.31;;;22.05;58.18
2188;BME280;1100;52.014;8.540;2023-05-12T12:28:47;100377.56;;;21.53;58.34
2188;BME280;1100;52.014;8.540;2023-05-12T12:31:12;100378.53;;;21.33;58.77
2188;BME280;1100;52.014;8.540;2023-05-12T12:33:38;100371.72;;;21.01;59.89
2188;BME280;1100;52.014;8.540;2023-05-12T12:36:04;100361.91;;;20.91;59.68
2188;BME280;1100;52.014;8.540;2023-05-12T12:38:30;100370.13;;;20.95;60.20
2188;BME280;1100;52.014;8.540;2023-05-12T12:40:55;100361.94;;;21.02;60.10
2188;BME280;1100;52.014;8.540;2023-05-12T12:43:20;100366.88;;;21.08;60.66
2188;BME280;1100;52.014;8.540;2023-05-12T12:45:46;100364.06;;;21.13;57.52
2188;BME280;1100;52.014;8.540;2023-05-12T12:48:11;100360.72;;;21.09;58.05
2188;BME280;1100;52.014;8.540;2023-05-12T12:50:37;100369.97;;;21.10;58.72
2188;BME280;1100;52.014;8.540;2023-05-12T12:53:03;100378.69;;;21.06;57.89
2188;BME280;1100;52.014;8.540;2023-05-12T12:55:28;100368.81;;;20.90;56.09
2188;BME280;1100;52.014;8.540;2023-05-12T12:57:54;100370.09;;;20.89;53.41
2188;BME280;1100;52.014;8.540;2023-05-12T13:00:19;100367.25;;;20.89;54.19
2188;BME280;1100;52.014;8.540;2023-05-12T13:02:47;100371.88;;;20.86;51.66
2188;BME280;1100;52.014;8.540;2023-05-12T13:05:13;100384.53;;;20.91;53.23
2188;BME280;1100;52.014;8.540;2023-05-12T13:07:39;100371.50;;;21.05;53.61
2188;BME280;1100;52.014;8.540;2023-05-12T13:10:04;100364.38;;;21.27;54.86
2188;BME280;1100;52.014;8.540;2023-05-12T13:12:30;100371.63;;;21.39;54.54